Time;durP1;ratioP1;P1;durP2;ratioP2;P2;SDS_P1;SDS_P2;PMS_P1;PMS_P2;Temp;Humidity;BMP_temperature;BMP_pressure;BME280_temperature;BME280_humidity;BME280_pressure;Samples;Min_cycle;Max_cycle;Signal;HPM_P1;HPM_P2
2022/01/14 00:01:47;;;;;;;;;;;19.30;54.70;;;;;;5052056;28;1955;-70
2022/01/14 00:04:13;;;;;;;;;;;19.30;54.70;;;;;;5053078;28;1198;-70
2022/01/14 00:06:38;;;;;;;;;;;19.30;54.80;;;;;;5052930;28;1130;-70
2022/01/14 00:09:06;;;;;;;;;;;19.30;54.80;;;;;;5052652;28;1349;-70
2022/01/14 00:11:45;;;;;;;;;;;19.20;54.80;;;;;;5050860;28;1321;-70
2022/01/14 00:16:39;;;;;;;;;;;19.20;54.90;;;;;;5053017;28;1289;-70
2022/01/14 00:19:04;;;;;;;;;;;19.20;54.90;;;;;;5051728;28;1134;-70
2022/01/14 00:21:32;;;;;;;;;;;19.20;54.90;;;;;;5052074;28;1910;-69
2022/01/14 00:24:09;;;;;;;;;;;19.20;55.00;;;;;;5051923;28;1365;-68
2022/01/14 00:32:11;;;;;;;;;;;19.20;55.10;;;;;;5047502;28;1396;-68
2022/01/14 00:34:36;;;;;;;;;;;19.20;55.20;;;;;;5051449;28;1400;-68
2022/01/14 00:37:02;;;;;;;;;;;19.20;55.20;;;;;;5051808;28;1342;-68
2022/01/14 00:39:28;;;;;;;;;;;19.20;55.20;;;;;;5052051;28;1325;-69
2022/01/14 00:41:53;;;;;;;;;;;19.20;55.30;;;;;;5049202;28;1993;-68
2022/01/14 00:44:19;;;;;;;;;;;19.10;55.30;;;;;;5043269;28;1015;-69
2022/01/14 00:46:45;;;;;;;;;;;19.10;55.30;;;;;;5047301;28;1185;-68
2022/01/14 00:49:11;;;;;;;;;;;19.10;55.30;;;;;;5051375;28;1291;-69
2022/01/14 00:51:40;;;;;;;;;;;19.10;55.30;;;;;;5054713;28;1339;-70
2022/01/14 00:54:06;;;;;;;;;;;19.10;55.30;;;;;;5060907;28;1349;-70
2022/01/14 00:56:45;;;;;;;;;;;19.10;55.40;;;;;;5056112;28;1292;-69
2022/01/14 00:59:14;;;;;;;;;;;19.10;55.40;;;;;;5051273;28;1174;-68
2022/01/14 01:01:48;;;;;;;;;;;19.10;55.40;;;;;;5051451;28;1910;-68
2022/01/14 01:04:13;;;;;;;;;;;19.10;55.50;;;;;;5052368;28;1115;-68
2022/01/14 01:06:39;;;;;;;;;;;19.10;55.50;;;;;;5052718;28;1137;-68
2022/01/14 01:09:09;;;;;;;;;;;19.00;55.50;;;;;;5050606;28;1079;-68
2022/01/14 01:11:37;;;;;;;;;;;19.00;55.50;;;;;;5050270;28;1452;-68
2022/01/14 01:14:12;;;;;;;;;;;19.00;55.50;;;;;;5057250;28;1075;-68
2022/01/14 01:16:37;;;;;;;;;;;19.00;55.60;;;;;;5058463;28;1051;-68
2022/01/14 01:19:03;;;;;;;;;;;19.00;55.60;;;;;;5053432;28;1376;-68
2022/01/14 01:21:28;;;;;;;;;;;19.00;55.60;;;;;;5051535;28;1910;-68
2022/01/14 01:23:54;;;;;;;;;;;19.00;55.60;;;;;;5052336;28;1054;-67
2022/01/14 01:26:27;;;;;;;;;;;19.00;55.70;;;;;;5052796;28;1416;-67
2022/01/14 01:29:03;;;;;;;;;;;19.00;55.70;;;;;;5052311;28;1043;-67
2022/01/14 01:31:35;;;;;;;;;;;19.00;55.70;;;;;;5053546;28;1396;-67
2022/01/14 01:34:06;;;;;;;;;;;19.00;55.70;;;;;;5055437;28;1392;-67
2022/01/14 01:36:32;;;;;;;;;;;19.00;55.80;;;;;;5056238;28;1051;-68
2022/01/14 01:38:57;;;;;;;;;;;19.00;55.80;;;;;;5056540;28;1154;-68
2022/01/14 01:41:22;;;;;;;;;;;19.00;55.80;;;;;;5054820;28;1906;-67
2022/01/14 01:43:51;;;;;;;;;;;19.00;55.80;;;;;;5055010;28;1111;-67
2022/01/14 01:46:17;;;;;;;;;;;19.00;55.80;;;;;;5055045;28;1036;-67
2022/01/14 01:48:43;;;;;;;;;;;18.90;55.80;;;;;;5056175;28;1368;-67
2022/01/14 01:51:08;;;;;;;;;;;19.00;55.90;;;;;;5056008;28;1087;-68
2022/01/14 01:53:33;;;;;;;;;;;18.90;55.80;;;;;;5056579;28;1191;-68
2022/01/14 01:56:00;;;;;;;;;;;18.90;55.90;;;;;;5056212;28;1340;-67
2022/01/14 01:58:25;;;;;;;;;;;18.90;55.90;;;;;;5054869;28;1383;-68
2022/01/14 02:00:51;;;;;;;;;;;18.90;55.90;;;;;;5054759;28;1898;-68
2022/01/14 02:03:16;;;;;;;;;;;18.90;55.90;;;;;;5055105;28;1300;-68
2022/01/14 02:05:43;;;;;;;;;;;18.90;55.90;;;;;;5054252;28;1162;-68
2022/01/14 02:08:09;;;;;;;;;;;18.90;56.00;;;;;;5054385;28;1406;-68
2022/01/14 02:10:36;;;;;;;;;;;18.90;56.00;;;;;;5054266;28;1066;-68
2022/01/14 02:13:02;;;;;;;;;;;18.90;56.00;;;;;;5055312;28;1302;-68
2022/01/14 02:23:22;;;;;;;;;;;18.90;56.00;;;;;;5084714;22;1951;-70
2022/01/14 02:25:48;;;;;;;;;;;18.80;56.10;;;;;;5073117;28;1165;-70
2022/01/14 02:28:14;;;;;;;;;;;18.80;56.10;;;;;;5075328;28;1039;-69
2022/01/14 02:30:40;;;;;;;;;;;18.90;56.10;;;;;;5074534;28;1090;-69
2022/01/14 02:33:05;;;;;;;;;;;18.80;56.10;;;;;;5065758;28;1427;-69
2022/01/14 02:35:31;;;;;;;;;;;18.80;56.10;;;;;;5054862;28;1143;-69
2022/01/14 02:37:56;;;;;;;;;;;18.80;56.20;;;;;;5053800;28;1067;-69
2022/01/14 02:40:21;;;;;;;;;;;18.80;56.20;;;;;;5052750;28;1910;-69
2022/01/14 02:42:48;;;;;;;;;;;18.80;56.20;;;;;;5053719;28;1283;-69
2022/01/14 02:45:14;;;;;;;;;;;18.80;56.20;;;;;;5054653;28;1106;-69
2022/01/14 02:47:39;;;;;;;;;;;18.80;56.20;;;;;;5054892;28;1064;-69
2022/01/14 02:50:08;;;;;;;;;;;18.80;56.20;;;;;;5054056;28;1106;-69
2022/01/14 02:55:30;;;;;;;;;;;18.80;56.30;;;;;;5029613;28;1272;-69
2022/01/14 02:57:56;;;;;;;;;;;18.80;56.30;;;;;;5054345;28;1095;-69
2022/01/14 03:00:26;;;;;;;;;;;18.80;56.90;;;;;;5053014;28;1960;-69
2022/01/14 03:02:52;;;;;;;;;;;18.80;56.30;;;;;;5053087;28;1270;-69
2022/01/14 03:05:17;;;;;;;;;;;18.80;56.30;;;;;;5053061;28;1397;-69
2022/01/14 03:07:43;;;;;;;;;;;18.80;56.30;;;;;;5052525;28;1406;-69
2022/01/14 03:10:09;;;;;;;;;;;18.80;56.30;;;;;;5049408;28;1123;-69
2022/01/14 03:12:34;;;;;;;;;;;18.80;56.40;;;;;;5052684;28;1252;-69
2022/01/14 03:15:00;;;;;;;;;;;18.80;56.40;;;;;;5053223;28;1092;-69
2022/01/14 03:17:27;;;;;;;;;;;18.80;56.40;;;;;;5053409;28;1257;-69
2022/01/14 03:19:53;;;;;;;;;;;18.80;56.40;;;;;;5052967;28;1355;-69
2022/01/14 03:22:23;;;;;;;;;;;18.80;56.40;;;;;;5052997;28;1951;-69
2022/01/14 03:27:14;;;;;;;;;;;18.70;56.40;;;;;;5040315;28;1113;-69
2022/01/14 03:29:39;;;;;;;;;;;18.70;56.40;;;;;;5053640;28;1063;-69
2022/01/14 03:32:05;;;;;;;;;;;18.70;56.40;;;;;;5051951;28;1207;-69
2022/01/14 03:34:30;;;;;;;;;;;18.80;56.50;;;;;;5053115;28;1143;-69
2022/01/14 03:36:56;;;;;;;;;;;18.70;56.40;;;;;;5052775;28;1206;-69
2022/01/14 03:39:21;;;;;;;;;;;18.70;56.50;;;;;;5053635;28;1126;-69
2022/01/14 03:41:47;;;;;;;;;;;18.70;56.50;;;;;;5051904;28;1906;-69
2022/01/14 03:44:12;;;;;;;;;;;18.70;56.50;;;;;;5052632;28;1285;-69
2022/01/14 03:46:38;;;;;;;;;;;18.70;56.50;;;;;;5052292;28;1083;-69
2022/01/14 03:49:03;;;;;;;;;;;18.70;56.50;;;;;;5053453;28;1059;-69
2022/01/14 03:51:28;;;;;;;;;;;18.70;56.50;;;;;;5038227;28;1079;-69
2022/01/14 03:53:54;;;;;;;;;;;18.70;56.60;;;;;;5053389;28;1280;-69
2022/01/14 03:56:21;;;;;;;;;;;18.70;56.60;;;;;;5053299;28;1146;-69
2022/01/14 03:58:46;;;;;;;;;;;18.70;56.60;;;;;;5052262;28;1068;-69
2022/01/14 04:01:12;;;;;;;;;;;18.70;56.60;;;;;;5052238;28;1906;-69
2022/01/14 04:03:38;;;;;;;;;;;18.70;56.70;;;;;;5051594;28;1224;-69
2022/01/14 04:06:03;;;;;;;;;;;18.70;56.60;;;;;;5053171;28;1098;-69
2022/01/14 04:08:29;;;;;;;;;;;18.70;56.70;;;;;;5052865;28;1121;-69
2022/01/14 04:10:56;;;;;;;;;;;18.70;56.70;;;;;;5051202;28;1175;-69
2022/01/14 04:13:23;;;;;;;;;;;18.70;56.70;;;;;;5051697;28;1448;-69
2022/01/14 04:15:48;;;;;;;;;;;18.70;56.70;;;;;;5051478;28;1389;-69
2022/01/14 04:18:18;;;;;;;;;;;18.70;56.70;;;;;;5053071;28;1063;-69
2022/01/14 04:20:44;;;;;;;;;;;18.70;56.70;;;;;;5052408;28;1918;-69
2022/01/14 04:23:13;;;;;;;;;;;18.70;56.70;;;;;;5051795;28;1426;-69
2022/01/14 04:25:38;;;;;;;;;;;18.70;56.70;;;;;;5051612;28;1397;-69
2022/01/14 04:28:06;;;;;;;;;;;18.70;56.70;;;;;;5052744;28;1083;-69
2022/01/14 04:30:32;;;;;;;;;;;18.70;56.70;;;;;;5048153;28;1110;-69
2022/01/14 04:32:58;;;;;;;;;;;18.70;56.70;;;;;;5042010;28;1383;-69
2022/01/14 04:35:26;;;;;;;;;;;18.60;56.70;;;;;;5051555;28;1404;-69
2022/01/14 04:37:52;;;;;;;;;;;18.70;56.80;;;;;;5051153;28;1154;-69
2022/01/14 04:40:17;;;;;;;;;;;18.70;56.80;;;;;;5052608;28;1910;-69
2022/01/14 04:42:43;;;;;;;;;;;18.60;56.80;;;;;;5050762;28;1430;-69
2022/01/14 04:45:10;;;;;;;;;;;18.70;56.80;;;;;;5038207;28;1111;-69
2022/01/14 04:47:44;;;;;;;;;;;18.60;56.80;;;;;;5051153;28;1051;-69
2022/01/14 04:50:11;;;;;;;;;;;18.60;56.80;;;;;;5039258;28;1131;-69
2022/01/14 04:52:36;;;;;;;;;;;18.60;56.80;;;;;;5051795;28;1294;-69
2022/01/14 04:55:01;;;;;;;;;;;18.60;56.80;;;;;;5052552;28;1110;-69
2022/01/14 04:57:27;;;;;;;;;;;18.60;56.80;;;;;;5052372;28;1281;-69
2022/01/14 04:59:52;;;;;;;;;;;18.60;56.80;;;;;;5051946;28;1067;-69
2022/01/14 05:02:18;;;;;;;;;;;18.60;56.80;;;;;;5051515;28;1969;-69
2022/01/14 05:04:45;;;;;;;;;;;18.60;56.80;;;;;;5052118;28;1106;-69
2022/01/14 05:07:15;;;;;;;;;;;18.60;56.80;;;;;;5051947;28;1149;-69
2022/01/14 05:09:45;;;;;;;;;;;18.60;56.80;;;;;;5047395;28;1119;-69
2022/01/14 05:12:11;;;;;;;;;;;18.70;56.80;;;;;;5051247;28;1354;-69
2022/01/14 05:14:37;;;;;;;;;;;18.70;56.80;;;;;;5052701;28;1063;-69
2022/01/14 05:17:02;;;;;;;;;;;18.80;56.80;;;;;;5048141;28;1091;-69
2022/01/14 05:19:28;;;;;;;;;;;18.90;56.70;;;;;;5052373;28;1309;-69
2022/01/14 05:21:53;;;;;;;;;;;19.00;56.60;;;;;;5051048;28;1976;-69
2022/01/14 05:24:18;;;;;;;;;;;19.10;56.60;;;;;;5050082;28;1421;-69
2022/01/14 05:26:44;;;;;;;;;;;19.20;56.40;;;;;;5052210;28;1082;-69
2022/01/14 05:29:09;;;;;;;;;;;19.30;56.10;;;;;;5051155;28;1467;-69
2022/01/14 05:31:45;;;;;;;;;;;19.50;55.80;;;;;;5051165;28;1142;-69
2022/01/14 05:34:10;;;;;;;;;;;19.60;55.50;;;;;;5052294;28;1191;-69
2022/01/14 05:36:35;;;;;;;;;;;19.70;55.20;;;;;;5051605;28;1332;-69
2022/01/14 05:39:01;;;;;;;;;;;19.90;54.90;;;;;;5051871;28;1125;-69
2022/01/14 05:41:26;;;;;;;;;;;20.00;54.60;;;;;;5051109;28;1902;-69
2022/01/14 05:43:52;;;;;;;;;;;20.10;54.30;;;;;;5051832;28;1364;-69
2022/01/14 05:46:17;;;;;;;;;;;20.20;54.10;;;;;;5051761;28;1286;-69
2022/01/14 05:48:42;;;;;;;;;;;20.30;53.80;;;;;;5052064;28;1344;-69
2022/01/14 05:51:08;;;;;;;;;;;20.40;53.60;;;;;;5051201;28;1318;-69
2022/01/14 05:53:33;;;;;;;;;;;20.50;53.40;;;;;;5051685;28;1432;-69
2022/01/14 05:55:59;;;;;;;;;;;20.60;53.20;;;;;;5051794;28;1292;-69
2022/01/14 05:58:24;;;;;;;;;;;20.60;53.10;;;;;;5038917;28;1138;-69
2022/01/14 06:00:49;;;;;;;;;;;20.60;53.40;;;;;;5050719;28;1958;-69
2022/01/14 06:03:15;;;;;;;;;;;20.70;52.70;;;;;;5051727;28;1227;-69
2022/01/14 06:05:40;;;;;;;;;;;20.80;52.70;;;;;;5051670;28;1335;-69
2022/01/14 06:08:06;;;;;;;;;;;20.80;52.50;;;;;;5051515;28;1079;-69
2022/01/14 06:10:31;;;;;;;;;;;20.90;52.50;;;;;;5046124;28;968;-69
2022/01/14 06:12:57;;;;;;;;;;;20.90;52.40;;;;;;5051613;28;1272;-69
2022/01/14 06:15:22;;;;;;;;;;;20.90;52.80;;;;;;5052040;28;861;-69
2022/01/14 06:17:47;;;;;;;;;;;21.00;52.20;;;;;;5053661;28;1205;-69
2022/01/14 06:20:13;;;;;;;;;;;21.00;52.20;;;;;;5054807;28;1906;-69
2022/01/14 06:22:39;;;;;;;;;;;21.10;52.20;;;;;;5041394;28;1329;-69
2022/01/14 06:25:04;;;;;;;;;;;21.10;52.10;;;;;;5043825;28;1185;-69
2022/01/14 06:27:32;;;;;;;;;;;21.10;52.00;;;;;;5047295;28;1084;-69
2022/01/14 06:29:58;;;;;;;;;;;21.10;52.00;;;;;;5047163;28;1121;-69
2022/01/14 06:32:24;;;;;;;;;;;21.10;52.00;;;;;;5040924;28;1677;-69
2022/01/14 06:34:49;;;;;;;;;;;21.10;52.10;;;;;;5055182;28;1275;-69
2022/01/14 06:37:15;;;;;;;;;;;21.10;52.10;;;;;;5053090;28;1186;-69
2022/01/14 06:39:40;;;;;;;;;;;21.10;52.10;;;;;;5055071;28;1071;-69
2022/01/14 06:42:06;;;;;;;;;;;21.10;52.20;;;;;;5054006;28;1913;-69
2022/01/14 06:44:31;;;;;;;;;;;21.10;52.20;;;;;;5053852;28;1079;-69
2022/01/14 06:46:57;;;;;;;;;;;21.10;52.20;;;;;;5054858;28;1051;-69
2022/01/14 06:49:22;;;;;;;;;;;21.10;52.30;;;;;;5055216;28;1297;-69
2022/01/14 06:51:47;;;;;;;;;;;21.10;52.20;;;;;;5052454;28;1517;-69
2022/01/14 06:54:13;;;;;;;;;;;21.10;52.20;;;;;;5054534;28;1262;-69
2022/01/14 06:56:38;;;;;;;;;;;21.10;52.20;;;;;;5050407;28;1122;-69
2022/01/14 06:59:05;;;;;;;;;;;21.10;52.20;;;;;;5045414;28;1043;-69
2022/01/14 07:01:30;;;;;;;;;;;21.10;52.20;;;;;;5052664;28;1979;-69
2022/01/14 07:03:55;;;;;;;;;;;21.10;52.20;;;;;;5053270;28;1360;-69
2022/01/14 07:06:21;;;;;;;;;;;21.10;52.20;;;;;;5054165;28;1420;-69
2022/01/14 07:08:46;;;;;;;;;;;21.00;52.30;;;;;;5052451;28;1314;-69
2022/01/14 07:11:12;;;;;;;;;;;21.00;52.30;;;;;;5053535;28;1278;-69
2022/01/14 07:13:38;;;;;;;;;;;21.00;52.30;;;;;;5054397;28;1416;-70
2022/01/14 07:16:04;;;;;;;;;;;21.00;52.40;;;;;;5054221;28;1166;-70
2022/01/14 07:18:29;;;;;;;;;;;21.00;52.50;;;;;;5052846;28;1400;-70
2022/01/14 07:20:55;;;;;;;;;;;20.90;52.50;;;;;;5052245;28;1906;-70
2022/01/14 07:23:20;;;;;;;;;;;20.90;52.50;;;;;;5053989;28;1272;-70
2022/01/14 07:25:45;;;;;;;;;;;20.90;52.60;;;;;;5054343;28;1472;-70
2022/01/14 07:28:11;;;;;;;;;;;20.90;52.60;;;;;;5055022;28;1365;-69
2022/01/14 07:30:36;;;;;;;;;;;20.90;52.70;;;;;;5048337;28;1055;-69
2022/01/14 07:33:02;;;;;;;;;;;20.90;53.30;;;;;;5045273;28;1197;-69
2022/01/14 07:35:27;;;;;;;;;;;20.80;52.70;;;;;;5040407;28;1091;-69
2022/01/14 07:37:52;;;;;;;;;;;20.80;52.80;;;;;;5053525;28;1126;-69
2022/01/14 07:40:18;;;;;;;;;;;20.80;52.80;;;;;;5052902;28;1901;-70
2022/01/14 07:42:43;;;;;;;;;;;20.80;52.90;;;;;;5052145;28;1345;-70
2022/01/14 07:45:10;;;;;;;;;;;20.80;52.90;;;;;;5053792;28;1673;-70
2022/01/14 07:47:35;;;;;;;;;;;20.80;53.50;;;;;;5053817;28;1244;-70
2022/01/14 07:50:01;;;;;;;;;;;20.70;52.90;;;;;;5040150;28;1427;-70
2022/01/14 07:52:26;;;;;;;;;;;20.70;52.70;;;;;;5051743;28;1343;-69
2022/01/14 07:54:52;;;;;;;;;;;20.70;51.80;;;;;;5043719;28;1411;-69
2022/01/14 07:57:17;;;;;;;;;;;20.60;52.20;;;;;;5046191;28;1128;-69
2022/01/14 07:59:43;;;;;;;;;;;20.70;52.50;;;;;;5044195;28;1457;-69
2022/01/14 08:02:08;;;;;;;;;;;20.70;52.80;;;;;;5041116;28;1914;-70
2022/01/14 08:04:35;;;;;;;;;;;20.80;52.70;;;;;;5049692;28;1369;-70
2022/01/14 08:07:08;;;;;;;;;;;20.70;52.70;;;;;;5045616;28;1180;-70
2022/01/14 08:09:34;;;;;;;;;;;20.70;52.90;;;;;;5046264;28;1114;-69
2022/01/14 08:12:00;;;;;;;;;;;20.80;53.30;;;;;;5049151;28;1379;-70
2022/01/14 08:14:25;;;;;;;;;;;20.80;53.50;;;;;;5044647;28;1239;-69
2022/01/14 08:16:51;;;;;;;;;;;20.70;53.60;;;;;;5044665;28;1247;-70
2022/01/14 08:19:16;;;;;;;;;;;20.80;53.70;;;;;;5041888;28;1172;-70
2022/01/14 08:21:41;;;;;;;;;;;20.70;53.90;;;;;;5039989;28;1902;-69
2022/01/14 08:24:07;;;;;;;;;;;20.70;54.00;;;;;;5047781;28;1369;-69
2022/01/14 08:26:33;;;;;;;;;;;20.80;54.10;;;;;;5082480;22;3640;-69
2022/01/14 08:28:58;;;;;;;;;;;20.80;54.30;;;;;;5064878;28;1967;-68
2022/01/14 08:31:23;;;;;;;;;;;20.80;54.30;;;;;;5065481;28;1278;-68
2022/01/14 08:33:49;;;;;;;;;;;20.80;54.40;;;;;;5069303;28;2022;-69
2022/01/14 08:36:14;;;;;;;;;;;20.80;54.60;;;;;;5063454;28;1943;-69
2022/01/14 08:38:40;;;;;;;;;;;20.80;54.70;;;;;;5057182;28;1692;-67
2022/01/14 08:41:05;;;;;;;;;;;20.80;54.70;;;;;;5046441;28;1938;-69
2022/01/14 08:43:31;;;;;;;;;;;20.70;54.70;;;;;;5031380;28;1420;-69
2022/01/14 08:45:58;;;;;;;;;;;20.70;54.90;;;;;;5031669;28;1364;-68
2022/01/14 08:48:24;;;;;;;;;;;20.80;54.90;;;;;;5031753;28;1739;-69
2022/01/14 08:50:49;;;;;;;;;;;20.70;54.90;;;;;;5034298;28;1201;-69
2022/01/14 08:53:15;;;;;;;;;;;20.70;55.00;;;;;;5065215;28;1182;-69
2022/01/14 08:55:41;;;;;;;;;;;20.70;55.00;;;;;;5052332;28;1325;-69
2022/01/14 08:58:06;;;;;;;;;;;20.70;55.20;;;;;;5050955;28;1079;-69
2022/01/14 09:00:32;;;;;;;;;;;20.80;55.10;;;;;;5051580;28;1948;-69
2022/01/14 09:02:57;;;;;;;;;;;20.80;55.10;;;;;;5031095;28;1481;-68
2022/01/14 09:05:23;;;;;;;;;;;20.80;55.20;;;;;;5031205;28;1378;-68
2022/01/14 09:07:48;;;;;;;;;;;20.80;55.30;;;;;;5047920;28;1780;-69
2022/01/14 09:10:14;;;;;;;;;;;20.80;55.40;;;;;;5047967;28;1092;-68
2022/01/14 09:12:40;;;;;;;;;;;20.70;55.50;;;;;;5061574;28;1345;-68
2022/01/14 09:15:07;;;;;;;;;;;20.70;55.50;;;;;;5033014;28;1339;-68
2022/01/14 09:17:32;;;;;;;;;;;20.80;55.50;;;;;;5031311;28;1341;-67
2022/01/14 09:19:57;;;;;;;;;;;20.70;55.60;;;;;;5032726;28;1079;-69
2022/01/14 09:22:25;;;;;;;;;;;20.70;55.60;;;;;;5030200;28;1957;-69
2022/01/14 09:24:52;;;;;;;;;;;20.70;55.80;;;;;;5031228;28;1361;-69
2022/01/14 09:27:18;;;;;;;;;;;20.80;55.70;;;;;;5030825;28;1052;-69
2022/01/14 09:29:43;;;;;;;;;;;20.70;55.70;;;;;;5030965;28;1298;-69
2022/01/14 09:32:09;;;;;;;;;;;20.70;55.80;;;;;;5035323;28;1960;-69
2022/01/14 09:34:34;;;;;;;;;;;20.70;55.70;;;;;;5062084;28;1293;-68
2022/01/14 09:37:00;;;;;;;;;;;20.70;55.70;;;;;;5061815;28;1379;-68
2022/01/14 09:39:25;;;;;;;;;;;20.70;55.80;;;;;;5049497;28;1212;-69
2022/01/14 09:41:51;;;;;;;;;;;20.70;55.90;;;;;;5031573;28;1914;-69
2022/01/14 09:44:16;;;;;;;;;;;20.70;55.90;;;;;;5031979;28;1071;-69
2022/01/14 09:46:42;;;;;;;;;;;20.70;55.80;;;;;;5031723;28;1278;-69
2022/01/14 09:49:07;;;;;;;;;;;20.80;55.90;;;;;;5032006;28;1039;-68
2022/01/14 09:51:33;;;;;;;;;;;20.70;55.80;;;;;;5033359;28;1111;-68
2022/01/14 09:53:58;;;;;;;;;;;20.70;55.90;;;;;;5036299;28;1071;-69
2022/01/14 09:56:24;;;;;;;;;;;20.70;55.90;;;;;;5034365;28;1344;-69
2022/01/14 09:58:50;;;;;;;;;;;20.70;56.60;;;;;;5023013;28;1291;-68
2022/01/14 10:01:20;;;;;;;;;;;20.80;56.10;;;;;;5035539;28;1961;-68
2022/01/14 10:03:49;;;;;;;;;;;20.70;56.00;;;;;;5048336;28;1158;-68
2022/01/14 10:06:32;;;;;;;;;;;20.70;56.00;;;;;;5058036;28;1281;-69
2022/01/14 10:09:07;;;;;;;;;;;20.80;56.10;;;;;;5055813;28;1287;-68
2022/01/14 10:11:33;;;;;;;;;;;20.70;56.10;;;;;;5035646;28;1381;-68
2022/01/14 10:14:07;;;;;;;;;;;20.70;56.10;;;;;;5036197;28;1365;-68
2022/01/14 10:16:33;;;;;;;;;;;20.70;56.20;;;;;;5036397;28;1284;-68
2022/01/14 10:18:58;;;;;;;;;;;20.70;56.20;;;;;;5036038;28;1106;-68
2022/01/14 10:21:29;;;;;;;;;;;20.70;56.20;;;;;;5036080;28;1969;-68
2022/01/14 10:23:56;;;;;;;;;;;20.70;56.30;;;;;;5036287;28;1080;-67
2022/01/14 10:26:21;;;;;;;;;;;20.70;56.40;;;;;;5036112;28;1212;-68
2022/01/14 10:28:59;;;;;;;;;;;20.70;56.40;;;;;;5037128;28;1292;-68
2022/01/14 10:31:32;;;;;;;;;;;20.60;56.50;;;;;;5045548;28;1504;-68
2022/01/14 10:34:27;;;;;;;;;;;20.60;56.50;;;;;;5055044;28;1314;-68
2022/01/14 10:37:08;;;;;;;;;;;20.60;56.50;;;;;;5033779;28;1345;-68
2022/01/14 10:39:33;;;;;;;;;;;20.60;56.60;;;;;;5056677;28;1380;-68
2022/01/14 10:41:58;;;;;;;;;;;20.60;56.60;;;;;;5053773;28;1973;-68
2022/01/14 10:44:31;;;;;;;;;;;20.60;56.50;;;;;;5056572;28;1321;-68
2022/01/14 10:47:16;;;;;;;;;;;20.60;56.60;;;;;;5055095;28;1344;-68
2022/01/14 10:49:42;;;;;;;;;;;20.60;56.60;;;;;;5056585;28;1355;-68
2022/01/14 10:52:13;;;;;;;;;;;20.60;56.60;;;;;;5053668;28;1062;-68
2022/01/14 10:54:43;;;;;;;;;;;20.60;56.60;;;;;;5056580;28;1354;-68
2022/01/14 10:57:21;;;;;;;;;;;20.70;56.70;;;;;;5055258;28;1291;-68
2022/01/14 10:59:47;;;;;;;;;;;20.70;56.70;;;;;;5056503;28;1344;-67
2022/01/14 11:02:32;;;;;;;;;;;20.70;56.80;;;;;;5054222;28;1963;-68
2022/01/14 11:05:00;;;;;;;;;;;20.70;56.80;;;;;;5034857;28;1260;-68
2022/01/14 11:07:25;;;;;;;;;;;20.60;57.00;;;;;;5035998;28;1367;-69
2022/01/14 11:09:52;;;;;;;;;;;20.70;57.10;;;;;;5043077;28;1193;-68
2022/01/14 11:12:18;;;;;;;;;;;20.70;56.90;;;;;;5052762;28;1333;-69
2022/01/14 11:14:43;;;;;;;;;;;20.70;56.90;;;;;;5049020;28;1111;-70
2022/01/14 11:17:09;;;;;;;;;;;20.70;56.90;;;;;;5040556;28;1194;-71
2022/01/14 11:19:34;;;;;;;;;;;20.70;56.90;;;;;;5054256;28;1070;-69
2022/01/14 11:24:44;;;;;;;;;;;20.80;56.80;;;;;;5035545;28;1622;-70
2022/01/14 11:27:10;;;;;;;;;;;20.80;57.10;;;;;;5045228;28;1611;-70
2022/01/14 11:29:37;;;;;;;;;;;20.80;57.10;;;;;;5047975;28;1067;-69
2022/01/14 11:32:05;;;;;;;;;;;20.80;57.00;;;;;;5035136;28;1063;-67
2022/01/14 11:34:30;;;;;;;;;;;20.80;57.20;;;;;;5032858;28;1350;-68
2022/01/14 11:37:00;;;;;;;;;;;20.80;57.20;;;;;;5032902;28;1335;-68
2022/01/14 11:39:26;;;;;;;;;;;20.80;57.00;;;;;;5030977;28;1060;-71
2022/01/14 11:41:55;;;;;;;;;;;20.80;57.00;;;;;;5030421;28;1987;-67
2022/01/14 11:44:40;;;;;;;;;;;20.80;56.90;;;;;;5055946;28;2298;-69
2022/01/14 11:47:05;;;;;;;;;;;20.80;57.00;;;;;;5036606;28;1480;-71
2022/01/14 11:49:35;;;;;;;;;;;20.80;57.00;;;;;;5061302;28;1499;-69
2022/01/14 11:52:01;;;;;;;;;;;20.80;57.00;;;;;;5058609;28;1293;-69
2022/01/14 11:54:36;;;;;;;;;;;20.90;57.00;;;;;;5055332;28;2251;-69
2022/01/14 11:57:01;;;;;;;;;;;20.80;57.00;;;;;;5058305;28;1353;-71
2022/01/14 11:59:27;;;;;;;;;;;20.80;57.00;;;;;;5058108;28;1173;-69
2022/01/14 12:01:53;;;;;;;;;;;20.80;56.90;;;;;;5048995;28;1902;-69
2022/01/14 12:04:18;;;;;;;;;;;20.90;57.00;;;;;;5042050;28;1199;-69
2022/01/14 12:06:50;;;;;;;;;;;20.90;57.10;;;;;;5064344;28;2149;-71
2022/01/14 12:09:16;;;;;;;;;;;20.90;57.10;;;;;;5040518;28;1374;-68
2022/01/14 12:11:41;;;;;;;;;;;20.90;57.10;;;;;;5056680;28;1083;-68
2022/01/14 12:14:07;;;;;;;;;;;20.90;57.10;;;;;;5050214;28;1123;-69
2022/01/14 12:16:47;;;;;;;;;;;20.90;57.10;;;;;;5039888;28;1705;-71
2022/01/14 12:19:17;;;;;;;;;;;20.90;57.10;;;;;;5033456;28;946;-70
2022/01/14 12:21:42;;;;;;;;;;;20.90;57.10;;;;;;5031201;28;1961;-70
2022/01/14 12:24:21;;;;;;;;;;;20.90;57.20;;;;;;5032809;28;1300;-70
2022/01/14 12:26:55;;;;;;;;;;;20.90;57.10;;;;;;5032244;28;1243;-70
2022/01/14 12:29:34;;;;;;;;;;;20.90;57.20;;;;;;5032566;28;1363;-70
2022/01/14 12:32:09;;;;;;;;;;;20.90;57.20;;;;;;5032216;28;1134;-71
2022/01/14 12:34:35;;;;;;;;;;;20.90;57.50;;;;;;5024722;28;1452;-68
2022/01/14 12:37:00;;;;;;;;;;;20.90;57.30;;;;;;5062831;28;1360;-69
2022/01/14 12:39:26;;;;;;;;;;;20.90;57.20;;;;;;5034086;28;1143;-70
2022/01/14 12:41:52;;;;;;;;;;;21.00;57.30;;;;;;5048208;28;1906;-67
2022/01/14 12:44:17;;;;;;;;;;;21.00;57.20;;;;;;5040513;28;1553;-67
2022/01/14 12:47:01;;;;;;;;;;;21.00;57.20;;;;;;5036677;28;1317;-71
2022/01/14 12:49:29;;;;;;;;;;;21.10;57.10;;;;;;5043954;28;1777;-72
2022/01/14 12:52:01;;;;;;;;;;;21.10;57.10;;;;;;5048531;28;1370;-68
2022/01/14 12:54:34;;;;;;;;;;;21.10;57.10;;;;;;5039713;28;1328;-69
2022/01/14 12:56:59;;;;;;;;;;;21.10;57.10;;;;;;5030460;28;1341;-68
2022/01/14 12:59:25;;;;;;;;;;;21.10;57.20;;;;;;5046851;28;1078;-68
2022/01/14 13:01:51;;;;;;;;;;;21.10;57.30;;;;;;5044919;28;1977;-68
2022/01/14 13:04:17;;;;;;;;;;;21.10;57.40;;;;;;5038741;28;1374;-71
2022/01/14 13:06:53;;;;;;;;;;;21.10;55.80;;;;;;5051087;28;1745;-70
2022/01/14 13:09:19;;;;;;;;;;;21.10;53.60;;;;;;5046765;28;1673;-69
2022/01/14 13:11:46;;;;;;;;;;;21.00;52.40;;;;;;5054457;28;1091;-70
2022/01/14 13:14:16;;;;;;;;;;;21.00;52.30;;;;;;5040091;28;1250;-70
2022/01/14 13:16:45;;;;;;;;;;;20.90;51.30;;;;;;5042323;28;1354;-70
2022/01/14 13:19:23;;;;;;;;;;;20.90;50.70;;;;;;5058684;28;1145;-70
2022/01/14 13:21:49;;;;;;;;;;;20.80;50.50;;;;;;5049889;28;1906;-69
2022/01/14 13:24:18;;;;;;;;;;;20.70;50.20;;;;;;5051851;28;1043;-70
2022/01/14 13:26:43;;;;;;;;;;;20.70;50.10;;;;;;5051962;28;1217;-70
2022/01/14 13:29:09;;;;;;;;;;;20.70;50.00;;;;;;5056637;28;1099;-70
2022/01/14 13:31:34;;;;;;;;;;;20.60;49.50;;;;;;5038713;28;1299;-70
2022/01/14 13:33:59;;;;;;;;;;;20.60;49.80;;;;;;5044607;28;1403;-70
2022/01/14 13:36:25;;;;;;;;;;;20.60;50.00;;;;;;5048155;28;1381;-70
2022/01/14 13:39:06;;;;;;;;;;;20.60;50.20;;;;;;5055363;28;1258;-70
2022/01/14 13:41:31;;;;;;;;;;;20.60;50.50;;;;;;5053974;28;1961;-69
2022/01/14 13:44:00;;;;;;;;;;;20.50;50.60;;;;;;5055608;28;1077;-70
2022/01/14 13:46:32;;;;;;;;;;;20.60;50.90;;;;;;5053631;28;1377;-69
2022/01/14 13:48:57;;;;;;;;;;;20.50;51.00;;;;;;5054695;28;1394;-68
2022/01/14 13:51:24;;;;;;;;;;;20.50;51.20;;;;;;5046368;28;1097;-68
2022/01/14 13:53:50;;;;;;;;;;;20.50;51.30;;;;;;5044936;28;1317;-68
2022/01/14 13:56:17;;;;;;;;;;;20.50;51.50;;;;;;5043603;28;1383;-67
2022/01/14 13:58:45;;;;;;;;;;;20.50;51.60;;;;;;5048865;28;1321;-68
2022/01/14 14:01:10;;;;;;;;;;;20.50;51.70;;;;;;5041275;28;1895;-68
2022/01/14 14:03:46;;;;;;;;;;;20.50;51.80;;;;;;5044410;28;1336;-69
2022/01/14 14:06:14;;;;;;;;;;;20.50;51.90;;;;;;5042827;28;1466;-69
2022/01/14 14:16:59;;;;;;;;;;;20.50;52.30;;;;;;5042897;28;1343;-68
2022/01/14 14:19:25;;;;;;;;;;;20.50;52.50;;;;;;5042003;28;1306;-68
2022/01/14 14:22:03;;;;;;;;;;;20.50;52.50;;;;;;5048146;28;1959;-68
2022/01/14 14:24:29;;;;;;;;;;;20.50;52.60;;;;;;5052609;28;2186;-68
2022/01/14 14:26:54;;;;;;;;;;;20.50;52.70;;;;;;5050845;28;1419;-68
2022/01/14 14:29:21;;;;;;;;;;;20.50;52.80;;;;;;5054026;28;1249;-68
2022/01/14 14:31:46;;;;;;;;;;;20.50;52.80;;;;;;5036570;28;1853;-68
2022/01/14 14:34:12;;;;;;;;;;;20.50;52.90;;;;;;5051600;28;1363;-68
2022/01/14 14:36:38;;;;;;;;;;;20.50;52.90;;;;;;5059598;28;1393;-68
2022/01/14 14:39:04;;;;;;;;;;;20.50;53.10;;;;;;5045237;28;1425;-69
2022/01/14 14:41:30;;;;;;;;;;;20.50;53.10;;;;;;5045481;28;1913;-68
2022/01/14 14:43:55;;;;;;;;;;;20.50;53.10;;;;;;5033657;28;1564;-69
2022/01/14 14:46:20;;;;;;;;;;;20.40;53.10;;;;;;5035683;28;1637;-67
2022/01/14 14:48:46;;;;;;;;;;;20.40;53.20;;;;;;5047675;28;1378;-67
2022/01/14 14:51:12;;;;;;;;;;;20.40;53.30;;;;;;5038750;28;1512;-68
2022/01/14 14:53:38;;;;;;;;;;;20.40;53.30;;;;;;5034661;28;1035;-68
2022/01/14 14:56:03;;;;;;;;;;;20.40;53.40;;;;;;5034412;28;1449;-68
2022/01/14 14:58:29;;;;;;;;;;;20.40;53.40;;;;;;5034821;28;1372;-68
2022/01/14 15:00:55;;;;;;;;;;;20.40;53.40;;;;;;5039908;28;1949;-68
2022/01/14 15:03:20;;;;;;;;;;;20.40;53.50;;;;;;5052754;28;1989;-69